Airport View

Enter AWOS ICAO identifier for current METAR.

ex. KFNL

KTRM 080352Z AUTO 33015KT 10SM CLR 37/08 A2962 RMK AO2 SLP032 T03670078 $

8 Jul 2020 04:37

Frequency: 118.325

Phone: 760-399-8054

Other Area AWOS: KPSP - KNXP - KHMT - KF70

TAF KTRM 072337Z 0800/0824 VRB04KT P6SM SKC FM080400 31011G18KT P6SM SKC FM081000 32006KT P6SM SKC FM081800 14007KT P6SM SKC